sensor_id;sensor_type;location;lat;lon;timestamp;pressure;altitude;pressure_sealevel;temperature;humidity
27020;BME280;76819;49.098;11.826;2024-03-08T00:04:28;96259.13;;;4.80;60.47
27020;BME280;76819;49.098;11.826;2024-03-08T00:09:32;96261.91;;;4.78;60.60
27020;BME280;76819;49.098;11.826;2024-03-08T00:14:35;96251.47;;;4.78;60.52
27020;BME280;76819;49.098;11.826;2024-03-08T00:19:38;96254.56;;;4.74;60.30
27020;BME280;76819;49.098;11.826;2024-03-08T00:24:44;96247.09;;;4.63;60.35
27020;BME280;76819;49.098;11.826;2024-03-08T00:29:46;96237.16;;;4.58;61.02
27020;BME280;76819;49.098;11.826;2024-03-08T00:34:49;96228.84;;;4.55;61.34
27020;BME280;76819;49.098;11.826;2024-03-08T00:39:54;96231.47;;;4.47;61.45
27020;BME280;76819;49.098;11.826;2024-03-08T00:44:57;96226.72;;;4.50;61.33
27020;BME280;76819;49.098;11.826;2024-03-08T00:50:00;96232.78;;;4.51;61.78
27020;BME280;76819;49.098;11.826;2024-03-08T00:55:07;96231.47;;;4.55;61.14
27020;BME280;76819;49.098;11.826;2024-03-08T01:00:12;96221.97;;;4.54;61.14
27020;BME280;76819;49.098;11.826;2024-03-08T01:05:15;96215.59;;;4.56;60.87
27020;BME280;76819;49.098;11.826;2024-03-08T01:10:19;96218.91;;;4.50;61.30
27020;BME280;76819;49.098;11.826;2024-03-08T01:15:22;96204.72;;;4.45;61.54
27020;BME280;76819;49.098;11.826;2024-03-08T01:20:25;96204.22;;;4.49;61.55
27020;BME280;76819;49.098;11.826;2024-03-08T01:25:29;96189.66;;;4.47;61.45
27020;BME280;76819;49.098;11.826;2024-03-08T01:30:33;96183.69;;;4.38;61.78
27020;BME280;76819;49.098;11.826;2024-03-08T01:35:38;96184.00;;;4.43;61.56
27020;BME280;76819;49.098;11.826;2024-03-08T01:40:44;96178.47;;;4.38;61.32
27020;BME280;76819;49.098;11.826;2024-03-08T01:45:47;96174.06;;;4.39;61.52
27020;BME280;76819;49.098;11.826;2024-03-08T01:50:50;96165.75;;;4.35;61.39
27020;BME280;76819;49.098;11.826;2024-03-08T01:55:57;96156.09;;;4.36;61.37
27020;BME280;76819;49.098;11.826;2024-03-08T02:01:00;96149.94;;;4.28;61.62
27020;BME280;76819;49.098;11.826;2024-03-08T02:06:06;96140.50;;;4.19;61.94
27020;BME280;76819;49.098;11.826;2024-03-08T02:11:13;96138.09;;;4.18;61.96
27020;BME280;76819;49.098;11.826;2024-03-08T02:16:20;96134.31;;;4.20;61.73
27020;BME280;76819;49.098;11.826;2024-03-08T02:21:25;96126.00;;;4.17;61.78
27020;BME280;76819;49.098;11.826;2024-03-08T02:26:28;96125.03;;;4.18;61.67
27020;BME280;76819;49.098;11.826;2024-03-08T02:31:30;96123.53;;;4.15;62.20
27020;BME280;76819;49.098;11.826;2024-03-08T02:36:34;96128.94;;;4.14;62.49
27020;BME280;76819;49.098;11.826;2024-03-08T02:41:37;96120.31;;;4.13;62.27
27020;BME280;76819;49.098;11.826;2024-03-08T02:46:40;96115.72;;;4.15;62.15
27020;BME280;76819;49.098;11.826;2024-03-08T02:51:44;96116.88;;;4.13;62.02
27020;BME280;76819;49.098;11.826;2024-03-08T02:56:47;96117.47;;;4.23;61.91
27020;BME280;76819;49.098;11.826;2024-03-08T03:01:51;96120.56;;;4.26;61.70
27020;BME280;76819;49.098;11.826;2024-03-08T03:06:55;96120.91;;;4.23;61.70
27020;BME280;76819;49.098;11.826;2024-03-08T03:11:58;96120.91;;;4.23;61.33
27020;BME280;76819;49.098;11.826;2024-03-08T03:17:01;96116.72;;;4.14;62.03
27020;BME280;76819;49.098;11.826;2024-03-08T03:22:05;96110.84;;;4.12;62.43
27020;BME280;76819;49.098;11.826;2024-03-08T03:27:11;96099.13;;;4.08;62.89
27020;BME280;76819;49.098;11.826;2024-03-08T03:32:14;96096.16;;;4.11;63.30
27020;BME280;76819;49.098;11.826;2024-03-08T03:37:18;96090.41;;;4.16;63.46
27020;BME280;76819;49.098;11.826;2024-03-08T03:42:21;96087.47;;;4.19;63.26
27020;BME280;76819;49.098;11.826;2024-03-08T03:47:23;96077.34;;;4.16;63.74
27020;BME280;76819;49.098;11.826;2024-03-08T03:52:27;96082.38;;;4.25;62.93
27020;BME280;76819;49.098;11.826;2024-03-08T03:57:30;96076.53;;;4.15;63.32
27020;BME280;76819;49.098;11.826;2024-03-08T04:02:33;96061.28;;;4.04;63.41
27020;BME280;76819;49.098;11.826;2024-03-08T04:07:37;96064.88;;;4.03;63.34
27020;BME280;76819;49.098;11.826;2024-03-08T04:12:40;96067.13;;;4.06;63.12
27020;BME280;76819;49.098;11.826;2024-03-08T04:17:43;96074.81;;;4.08;62.78
27020;BME280;76819;49.098;11.826;2024-03-08T04:22:48;96070.91;;;4.04;62.79
27020;BME280;76819;49.098;11.826;2024-03-08T04:27:51;96065.19;;;4.00;63.09
27020;BME280;76819;49.098;11.826;2024-03-08T04:32:54;96059.69;;;3.95;63.23
27020;BME280;76819;49.098;11.826;2024-03-08T04:37:58;96054.69;;;3.86;63.70
27020;BME280;76819;49.098;11.826;2024-03-08T04:43:01;96046.50;;;3.89;63.99
27020;BME280;76819;49.098;11.826;2024-03-08T04:48:04;96062.50;;;3.86;64.11
27020;BME280;76819;49.098;11.826;2024-03-08T04:53:09;96062.03;;;3.82;63.94
27020;BME280;76819;49.098;11.826;2024-03-08T04:58:11;96056.59;;;3.92;63.26
27020;BME280;76819;49.098;11.826;2024-03-08T05:03:14;96051.88;;;3.95;63.24
27020;BME280;76819;49.098;11.826;2024-03-08T05:08:18;96050.25;;;3.86;63.10
27020;BME280;76819;49.098;11.826;2024-03-08T05:13:21;96053.66;;;3.95;63.18
27020;BME280;76819;49.098;11.826;2024-03-08T05:18:24;96044.72;;;3.89;63.42
27020;BME280;76819;49.098;11.826;2024-03-08T05:23:29;96040.47;;;3.88;63.61
27020;BME280;76819;49.098;11.826;2024-03-08T05:28:32;96047.31;;;3.89;63.25
27020;BME280;76819;49.098;11.826;2024-03-08T05:33:34;96037.53;;;3.83;63.48
27020;BME280;76819;49.098;11.826;2024-03-08T05:38:39;96033.47;;;3.81;63.70
27020;BME280;76819;49.098;11.826;2024-03-08T05:43:42;96031.34;;;3.84;63.69
27020;BME280;76819;49.098;11.826;2024-03-08T05:48:45;96029.56;;;3.77;64.13
27020;BME280;76819;49.098;11.826;2024-03-08T05:53:49;96016.03;;;3.81;63.77
27020;BME280;76819;49.098;11.826;2024-03-08T05:58:54;96017.41;;;3.69;64.25
27020;BME280;76819;49.098;11.826;2024-03-08T06:03:58;96016.38;;;3.78;64.26
27020;BME280;76819;49.098;11.826;2024-03-08T06:09:02;96018.00;;;3.79;64.61
27020;BME280;76819;49.098;11.826;2024-03-08T06:14:11;96018.94;;;3.86;64.38
27020;BME280;76819;49.098;11.826;2024-03-08T06:19:13;96005.88;;;3.86;64.80
27020;BME280;76819;49.098;11.826;2024-03-08T06:24:18;96012.91;;;3.86;65.00
27020;BME280;76819;49.098;11.826;2024-03-08T06:29:21;96013.72;;;3.86;65.68
27020;BME280;76819;49.098;11.826;2024-03-08T06:34:23;96011.88;;;3.95;65.35
27020;BME280;76819;49.098;11.826;2024-03-08T06:39:27;96009.81;;;4.13;65.00
27020;BME280;76819;49.098;11.826;2024-03-08T06:44:33;96015.56;;;4.08;65.36
27020;BME280;76819;49.098;11.826;2024-03-08T06:49:36;96018.53;;;4.28;64.99
27020;BME280;76819;49.098;11.826;2024-03-08T06:54:40;96013.63;;;4.33;65.05
27020;BME280;76819;49.098;11.826;2024-03-08T06:59:42;96007.81;;;4.46;64.65
27020;BME280;76819;49.098;11.826;2024-03-08T07:04:47;96005.06;;;4.62;64.60
27020;BME280;76819;49.098;11.826;2024-03-08T07:09:53;96010.16;;;4.78;64.49
27020;BME280;76819;49.098;11.826;2024-03-08T07:14:58;95996.53;;;4.82;64.67
27020;BME280;76819;49.098;11.826;2024-03-08T07:20:00;95998.47;;;5.03;63.70
27020;BME280;76819;49.098;11.826;2024-03-08T07:25:10;96000.91;;;5.05;63.92
27020;BME280;76819;49.098;11.826;2024-03-08T07:30:22;95987.03;;;5.19;64.21
27020;BME280;76819;49.098;11.826;2024-03-08T07:35:44;95982.47;;;5.36;63.79
27020;BME280;76819;49.098;11.826;2024-03-08T07:40:50;95992.16;;;5.56;62.72
27020;BME280;76819;49.098;11.826;2024-03-08T07:45:52;95993.41;;;5.75;62.83
27020;BME280;76819;49.098;11.826;2024-03-08T07:50:56;95983.94;;;5.89;62.10
27020;BME280;76819;49.098;11.826;2024-03-08T07:56:00;95981.56;;;6.08;62.20
27020;BME280;76819;49.098;11.826;2024-03-08T08:01:03;95978.69;;;6.24;61.15
27020;BME280;76819;49.098;11.826;2024-03-08T08:06:06;95988.69;;;6.57;61.58
27020;BME280;76819;49.098;11.826;2024-03-08T08:11:10;95974.25;;;6.67;60.80
27020;BME280;76819;49.098;11.826;2024-03-08T08:16:13;95975.59;;;6.84;60.08
27020;BME280;76819;49.098;11.826;2024-03-08T08:21:16;95970.25;;;6.99;59.22
27020;BME280;76819;49.098;11.826;2024-03-08T08:26:21;95970.22;;;7.20;58.57
27020;BME280;76819;49.098;11.826;2024-03-08T08:31:23;95958.19;;;7.39;57.71
27020;BME280;76819;49.098;11.826;2024-03-08T08:36:26;95965.94;;;7.54;56.78
27020;BME280;76819;49.098;11.826;2024-03-08T08:41:32;95951.63;;;7.63;56.44
27020;BME280;76819;49.098;11.826;2024-03-08T08:46:35;95949.47;;;7.73;55.81
27020;BME280;76819;49.098;11.826;2024-03-08T08:51:48;95944.50;;;7.97;55.68
27020;BME280;76819;49.098;11.826;2024-03-08T08:56:52;95941.88;;;8.04;55.14
27020;BME280;76819;49.098;11.826;2024-03-08T09:01:55;95931.59;;;8.16;54.96
27020;BME280;76819;49.098;11.826;2024-03-08T09:06:58;95930.66;;;8.49;53.92
27020;BME280;76819;49.098;11.826;2024-03-08T09:12:02;95922.78;;;8.76;53.09
27020;BME280;76819;49.098;11.826;2024-03-08T09:17:05;95908.22;;;8.67;52.20
27020;BME280;76819;49.098;11.826;2024-03-08T09:22:09;95914.63;;;9.10;51.79
27020;BME280;76819;49.098;11.826;2024-03-08T09:27:13;95887.56;;;8.83;50.81
27020;BME280;76819;49.098;11.826;2024-03-08T09:32:16;95887.47;;;9.16;50.72
27020;BME280;76819;49.098;11.826;2024-03-08T09:37:19;95892.47;;;9.50;50.86
27020;BME280;76819;49.098;11.826;2024-03-08T09:42:23;95876.31;;;9.78;49.72
27020;BME280;76819;49.098;11.826;2024-03-08T09:47:28;95869.91;;;9.99;49.18
27020;BME280;76819;49.098;11.826;2024-03-08T09:52:35;95868.31;;;10.54;49.18
27020;BME280;76819;49.098;11.826;2024-03-08T09:57:40;95868.94;;;10.56;47.89
27020;BME280;76819;49.098;11.826;2024-03-08T10:02:45;95864.00;;;10.84;47.65
27020;BME280;76819;49.098;11.826;2024-03-08T10:07:47;95850.94;;;10.89;46.70
27020;BME280;76819;49.098;11.826;2024-03-08T10:12:52;95850.50;;;10.92;45.30
27020;BME280;76819;49.098;11.826;2024-03-08T10:17:55;95857.97;;;10.77;44.44
27020;BME280;76819;49.098;11.826;2024-03-08T10:22:58;95843.47;;;10.86;44.64
27020;BME280;76819;49.098;11.826;2024-03-08T10:28:12;95833.88;;;11.28;45.20
27020;BME280;76819;49.098;11.826;2024-03-08T10:33:15;95840.66;;;11.72;44.46
27020;BME280;76819;49.098;11.826;2024-03-08T10:38:20;95830.69;;;11.56;43.26
27020;BME280;76819;49.098;11.826;2024-03-08T10:43:28;95823.19;;;12.01;43.09
27020;BME280;76819;49.098;11.826;2024-03-08T10:48:32;95823.41;;;12.41;43.52
27020;BME280;76819;49.098;11.826;2024-03-08T10:53:40;95818.78;;;12.25;41.16
27020;BME280;76819;49.098;11.826;2024-03-08T10:58:46;95822.25;;;12.83;41.46
27020;BME280;76819;49.098;11.826;2024-03-08T11:03:50;95812.63;;;13.40;41.65
27020;BME280;76819;49.098;11.826;2024-03-08T11:08:55;95809.00;;;13.58;40.90
27020;BME280;76819;49.098;11.826;2024-03-08T11:14:01;95799.66;;;14.12;40.12
27020;BME280;76819;49.098;11.826;2024-03-08T11:24:25;95786.56;;;14.55;39.43
27020;BME280;76819;49.098;11.826;2024-03-08T11:29:37;95775.22;;;14.76;38.52
27020;BME280;76819;49.098;11.826;2024-03-08T11:34:43;95770.88;;;15.09;38.92
27020;BME280;76819;49.098;11.826;2024-03-08T11:39:46;95767.34;;;15.25;39.03
27020;BME280;76819;49.098;11.826;2024-03-08T11:44:52;95747.09;;;15.46;37.66
27020;BME280;76819;49.098;11.826;2024-03-08T11:49:55;95734.28;;;15.91;38.44
27020;BME280;76819;49.098;11.826;2024-03-08T11:54:58;95717.19;;;16.14;37.32
27020;BME280;76819;49.098;11.826;2024-03-08T12:00:02;95710.50;;;16.43;36.25
27020;BME280;76819;49.098;11.826;2024-03-08T12:05:08;95704.25;;;16.64;36.62
27020;BME280;76819;49.098;11.826;2024-03-08T12:10:16;95699.34;;;16.93;36.13
27020;BME280;76819;49.098;11.826;2024-03-08T12:15:22;95690.06;;;17.11;34.77
27020;BME280;76819;49.098;11.826;2024-03-08T12:20:26;95678.78;;;16.88;35.19
27020;BME280;76819;49.098;11.826;2024-03-08T12:25:32;95673.03;;;17.27;35.05
27020;BME280;76819;49.098;11.826;2024-03-08T12:30:46;95667.00;;;17.57;34.64
27020;BME280;76819;49.098;11.826;2024-03-08T12:35:54;95662.50;;;17.77;34.70
27020;BME280;76819;49.098;11.826;2024-03-08T12:40:58;95656.63;;;18.31;32.52
27020;BME280;76819;49.098;11.826;2024-03-08T12:46:03;95655.91;;;20.26;31.17
27020;BME280;76819;49.098;11.826;2024-03-08T12:51:07;95639.03;;;22.46;27.18
27020;BME280;76819;49.098;11.826;2024-03-08T12:56:10;95618.59;;;24.74;25.30
27020;BME280;76819;49.098;11.826;2024-03-08T13:01:14;95613.41;;;25.94;23.28
27020;BME280;76819;49.098;11.826;2024-03-08T13:06:19;95603.72;;;26.83;22.20
27020;BME280;76819;49.098;11.826;2024-03-08T13:11:23;95598.28;;;28.03;22.80
27020;BME280;76819;49.098;11.826;2024-03-08T13:16:28;95587.22;;;28.29;21.17
27020;BME280;76819;49.098;11.826;2024-03-08T13:21:31;95591.09;;;28.07;20.33
27020;BME280;76819;49.098;11.826;2024-03-08T13:26:34;95579.94;;;28.66;20.20
27020;BME280;76819;49.098;11.826;2024-03-08T13:31:38;95580.06;;;28.81;19.81
27020;BME280;76819;49.098;11.826;2024-03-08T13:36:41;95568.16;;;28.98;20.09
27020;BME280;76819;49.098;11.826;2024-03-08T13:41:46;95568.06;;;29.07;19.56
27020;BME280;76819;49.098;11.826;2024-03-08T13:46:50;95577.47;;;29.33;18.98
27020;BME280;76819;49.098;11.826;2024-03-08T13:51:54;95567.94;;;29.15;17.92
27020;BME280;76819;49.098;11.826;2024-03-08T13:57:00;95564.56;;;29.06;17.91
27020;BME280;76819;49.098;11.826;2024-03-08T14:02:06;95554.06;;;28.23;17.55
27020;BME280;76819;49.098;11.826;2024-03-08T14:07:15;95556.72;;;28.11;18.02
27020;BME280;76819;49.098;11.826;2024-03-08T14:12:17;95551.81;;;28.50;18.19
27020;BME280;76819;49.098;11.826;2024-03-08T14:17:24;95538.66;;;28.84;18.33
27020;BME280;76819;49.098;11.826;2024-03-08T14:22:28;95534.44;;;28.99;17.49
27020;BME280;76819;49.098;11.826;2024-03-08T14:27:32;95522.66;;;28.59;17.63
27020;BME280;76819;49.098;11.826;2024-03-08T14:32:36;95514.63;;;28.05;18.70
27020;BME280;76819;49.098;11.826;2024-03-08T14:37:40;95515.31;;;26.40;19.08
27020;BME280;76819;49.098;11.826;2024-03-08T14:42:45;95507.34;;;24.38;20.85
27020;BME280;76819;49.098;11.826;2024-03-08T14:47:49;95509.44;;;22.58;21.97
27020;BME280;76819;49.098;11.826;2024-03-08T14:52:53;95514.38;;;21.64;23.32
27020;BME280;76819;49.098;11.826;2024-03-08T14:57:55;95513.63;;;22.37;23.73
27020;BME280;76819;49.098;11.826;2024-03-08T15:03:00;95495.88;;;23.12;21.07
27020;BME280;76819;49.098;11.826;2024-03-08T15:08:04;95488.44;;;24.38;21.05
27020;BME280;76819;49.098;11.826;2024-03-08T15:13:12;95489.72;;;24.09;20.64
27020;BME280;76819;49.098;11.826;2024-03-08T15:18:26;95489.06;;;25.08;19.80
27020;BME280;76819;49.098;11.826;2024-03-08T15:23:34;95478.44;;;24.95;19.80
27020;BME280;76819;49.098;11.826;2024-03-08T15:28:36;95477.97;;;24.45;19.94
27020;BME280;76819;49.098;11.826;2024-03-08T15:33:40;95476.53;;;24.95;20.07
27020;BME280;76819;49.098;11.826;2024-03-08T15:38:50;95467.44;;;25.60;19.50
27020;BME280;76819;49.098;11.826;2024-03-08T15:43:53;95458.72;;;25.03;19.56
27020;BME280;76819;49.098;11.826;2024-03-08T15:48:58;95462.84;;;24.83;19.77
27020;BME280;76819;49.098;11.826;2024-03-08T15:54:01;95462.69;;;24.97;20.02
27020;BME280;76819;49.098;11.826;2024-03-08T15:59:05;95460.94;;;24.92;20.04
27020;BME280;76819;49.098;11.826;2024-03-08T16:04:11;95450.03;;;24.41;20.50
27020;BME280;76819;49.098;11.826;2024-03-08T16:09:13;95440.34;;;24.40;20.93
27020;BME280;76819;49.098;11.826;2024-03-08T16:14:17;95437.34;;;23.71;21.28
27020;BME280;76819;49.098;11.826;2024-03-08T16:19:23;95430.66;;;23.15;22.00
27020;BME280;76819;49.098;11.826;2024-03-08T16:24:27;95436.41;;;22.51;22.53
27020;BME280;76819;49.098;11.826;2024-03-08T16:29:33;95433.66;;;22.01;23.55
27020;BME280;76819;49.098;11.826;2024-03-08T16:34:37;95424.53;;;21.70;23.47
27020;BME280;76819;49.098;11.826;2024-03-08T16:39:40;95430.59;;;20.97;24.38
27020;BME280;76819;49.098;11.826;2024-03-08T16:44:42;95431.59;;;20.03;25.81
27020;BME280;76819;49.098;11.826;2024-03-08T16:49:46;95426.69;;;18.61;28.07
27020;BME280;76819;49.098;11.826;2024-03-08T16:54:49;95442.03;;;17.46;29.88
27020;BME280;76819;49.098;11.826;2024-03-08T17:00:02;95431.50;;;16.13;31.98
27020;BME280;76819;49.098;11.826;2024-03-08T17:05:16;95438.75;;;15.29;33.39
27020;BME280;76819;49.098;11.826;2024-03-08T17:10:19;95438.03;;;14.70;34.52
27020;BME280;76819;49.098;11.826;2024-03-08T17:15:22;95427.94;;;14.18;35.54
27020;BME280;76819;49.098;11.826;2024-03-08T17:20:27;95435.03;;;13.69;36.34
27020;BME280;76819;49.098;11.826;2024-03-08T17:25:32;95434.34;;;13.19;37.34
27020;BME280;76819;49.098;11.826;2024-03-08T17:30:34;95439.66;;;12.86;38.17
27020;BME280;76819;49.098;11.826;2024-03-08T17:35:41;95443.50;;;12.33;39.91
27020;BME280;76819;49.098;11.826;2024-03-08T17:40:44;95443.56;;;11.93;40.64
27020;BME280;76819;49.098;11.826;2024-03-08T17:45:47;95436.34;;;11.65;41.24
27020;BME280;76819;49.098;11.826;2024-03-08T17:50:51;95445.22;;;11.25;42.97
27020;BME280;76819;49.098;11.826;2024-03-08T17:55:55;95449.25;;;11.04;42.64
27020;BME280;76819;49.098;11.826;2024-03-08T18:00:58;95446.25;;;10.89;43.86
27020;BME280;76819;49.098;11.826;2024-03-08T18:06:02;95452.19;;;10.61;44.17
27020;BME280;76819;49.098;11.826;2024-03-08T18:11:07;95445.88;;;10.21;45.84
27020;BME280;76819;49.098;11.826;2024-03-08T18:16:10;95445.66;;;10.04;46.61
27020;BME280;76819;49.098;11.826;2024-03-08T18:21:14;95444.72;;;9.98;46.23
27020;BME280;76819;49.098;11.826;2024-03-08T18:26:17;95443.06;;;9.86;46.26
27020;BME280;76819;49.098;11.826;2024-03-08T18:31:20;95448.09;;;9.87;46.42
27020;BME280;76819;49.098;11.826;2024-03-08T18:36:27;95438.69;;;9.62;47.04
27020;BME280;76819;49.098;11.826;2024-03-08T18:41:31;95435.31;;;9.54;46.93
27020;BME280;76819;49.098;11.826;2024-03-08T18:46:35;95427.72;;;9.28;48.27
27020;BME280;76819;49.098;11.826;2024-03-08T18:51:41;95428.56;;;9.04;48.46
27020;BME280;76819;49.098;11.826;2024-03-08T18:56:44;95427.34;;;8.82;49.03
27020;BME280;76819;49.098;11.826;2024-03-08T19:01:48;95425.16;;;8.79;49.17
27020;BME280;76819;49.098;11.826;2024-03-08T19:06:53;95422.91;;;8.58;49.83
27020;BME280;76819;49.098;11.826;2024-03-08T19:11:56;95413.75;;;8.42;49.83
27020;BME280;76819;49.098;11.826;2024-03-08T19:17:01;95415.81;;;8.27;50.61
27020;BME280;76819;49.098;11.826;2024-03-08T19:22:07;95414.72;;;8.10;50.99
27020;BME280;76819;49.098;11.826;2024-03-08T19:27:10;95417.13;;;8.11;50.83
27020;BME280;76819;49.098;11.826;2024-03-08T19:32:13;95412.31;;;8.08;51.09
27020;BME280;76819;49.098;11.826;2024-03-08T19:37:17;95406.72;;;7.91;51.33
27020;BME280;76819;49.098;11.826;2024-03-08T19:42:21;95406.00;;;7.84;51.26
27020;BME280;76819;49.098;11.826;2024-03-08T19:47:26;95401.16;;;7.81;51.51
27020;BME280;76819;49.098;11.826;2024-03-08T19:52:32;95395.75;;;7.70;51.13
27020;BME280;76819;49.098;11.826;2024-03-08T19:57:39;95391.75;;;7.61;52.10
27020;BME280;76819;49.098;11.826;2024-03-08T20:02:43;95384.72;;;7.55;51.43
27020;BME280;76819;49.098;11.826;2024-03-08T20:07:47;95387.19;;;7.43;51.94
27020;BME280;76819;49.098;11.826;2024-03-08T20:12:54;95378.72;;;7.41;52.04
27020;BME280;76819;49.098;11.826;2024-03-08T20:17:58;95382.41;;;7.27;52.11
27020;BME280;76819;49.098;11.826;2024-03-08T20:23:04;95381.63;;;7.20;52.67
27020;BME280;76819;49.098;11.826;2024-03-08T20:28:09;95369.53;;;7.12;52.81
27020;BME280;76819;49.098;11.826;2024-03-08T20:33:12;95376.41;;;7.13;52.71
27020;BME280;76819;49.098;11.826;2024-03-08T20:38:16;95372.19;;;6.99;52.87
27020;BME280;76819;49.098;11.826;2024-03-08T20:43:22;95364.75;;;6.96;53.60
27020;BME280;76819;49.098;11.826;2024-03-08T20:48:26;95360.72;;;6.93;52.81
27020;BME280;76819;49.098;11.826;2024-03-08T20:53:30;95346.41;;;6.83;52.93
27020;BME280;76819;49.098;11.826;2024-03-08T20:58:33;95340.59;;;6.68;54.23
27020;BME280;76819;49.098;11.826;2024-03-08T21:03:36;95339.81;;;6.61;54.25
27020;BME280;76819;49.098;11.826;2024-03-08T21:08:40;95334.78;;;6.53;54.80
27020;BME280;76819;49.098;11.826;2024-03-08T21:13:43;95341.44;;;6.42;55.32
27020;BME280;76819;49.098;11.826;2024-03-08T21:18:46;95330.75;;;6.57;53.62
27020;BME280;76819;49.098;11.826;2024-03-08T21:23:51;95327.75;;;6.47;54.32
27020;BME280;76819;49.098;11.826;2024-03-08T21:28:55;95335.78;;;6.52;53.81
27020;BME280;76819;49.098;11.826;2024-03-08T21:33:59;95350.72;;;6.51;53.74
27020;BME280;76819;49.098;11.826;2024-03-08T21:39:03;95337.22;;;6.48;54.32
27020;BME280;76819;49.098;11.826;2024-03-08T21:44:12;95329.38;;;6.34;55.03
27020;BME280;76819;49.098;11.826;2024-03-08T21:49:16;95328.16;;;6.44;54.53
27020;BME280;76819;49.098;11.826;2024-03-08T21:54:20;95323.34;;;6.34;55.03
27020;BME280;76819;49.098;11.826;2024-03-08T21:59:23;95319.91;;;6.40;54.40
27020;BME280;76819;49.098;11.826;2024-03-08T22:04:26;95317.28;;;6.33;54.69
27020;BME280;76819;49.098;11.826;2024-03-08T22:09:31;95307.41;;;6.29;54.72
27020;BME280;76819;49.098;11.826;2024-03-08T22:14:34;95304.41;;;6.19;54.61
27020;BME280;76819;49.098;11.826;2024-03-08T22:19:37;95290.28;;;6.13;55.37
27020;BME280;76819;49.098;11.826;2024-03-08T22:24:41;95287.88;;;6.12;55.25
27020;BME280;76819;49.098;11.826;2024-03-08T22:29:49;95283.06;;;6.09;55.08
27020;BME280;76819;49.098;11.826;2024-03-08T22:34:53;95295.34;;;6.02;56.09
27020;BME280;76819;49.098;11.826;2024-03-08T22:39:57;95287.91;;;6.05;55.40
27020;BME280;76819;49.098;11.826;2024-03-08T22:45:03;95290.28;;;5.94;56.17
27020;BME280;76819;49.098;11.826;2024-03-08T22:50:08;95280.22;;;5.97;55.92
27020;BME280;76819;49.098;11.826;2024-03-08T22:55:12;95276.81;;;5.90;56.03
27020;BME280;76819;49.098;11.826;2024-03-08T23:00:21;95269.72;;;5.84;55.62
27020;BME280;76819;49.098;11.826;2024-03-08T23:05:41;95271.75;;;5.82;56.67
27020;BME280;76819;49.098;11.826;2024-03-08T23:10:45;95258.47;;;5.77;56.49
27020;BME280;76819;49.098;11.826;2024-03-08T23:15:48;95260.47;;;5.68;57.00
27020;BME280;76819;49.098;11.826;2024-03-08T23:20:51;95259.28;;;5.71;57.30
27020;BME280;76819;49.098;11.826;2024-03-08T23:25:58;95254.63;;;5.66;57.45
27020;BME280;76819;49.098;11.826;2024-03-08T23:31:01;95248.19;;;5.69;56.94
27020;BME280;76819;49.098;11.826;2024-03-08T23:36:04;95250.41;;;5.72;57.24
27020;BME280;76819;49.098;11.826;2024-03-08T23:41:12;95253.63;;;5.61;57.60
27020;BME280;76819;49.098;11.826;2024-03-08T23:46:15;95247.59;;;5.67;57.50
27020;BME280;76819;49.098;11.826;2024-03-08T23:51:18;95240.72;;;5.59;57.74
27020;BME280;76819;49.098;11.826;2024-03-08T23:56:22;95223.81;;;5.55;58.16
